KFOA

Details ICAO KFOA
Name FLORA MUNI
Region United States
Timezone America/Chicago (UTC-6.0)
Plans Departing 0
Arriving 1
Stats Elevation 473 ft / 144 m (AMSL)
Location 38.665239° -88.453101°
Runways 2
Magnetic Variation 2.851° W
Sunrise 2017-12-17 13:07:24 UTC / 2017-12-17 07:07:24 Local
Sunset 2017-12-17 22:35:27 UTC / 2017-12-17 16:35:27 Local
Advertisement - Login to hide

Runways

ID Width Length Bearing (true) Bearing (mag) Surface Threshold Offset Overrun Length
03 75 ft / 23 m 5,008 ft / 1,526 m 29.55° 32.40° Asphalt 0 ft / 0 m 0 ft / 0 m
15 100 ft / 30 m 2,702 ft / 824 m 147.31° 150.16° Dirt 160 ft / 49 m 0 ft / 0 m
21 75 ft / 23 m 5,008 ft / 1,526 m 209.56° 212.41° Asphalt 0 ft / 0 m 0 ft / 0 m
33 100 ft / 30 m 2,702 ft / 824 m 327.32° 330.17° Dirt 0 ft / 0 m 0 ft / 0 m

Map

Weather


0- 5 10 15 20 25 30 35+ Temperature / ° C

Clouds and Precipitation
Forecast for 2017-12-18 06:00 UTC. Updated 2 hours ago

Ground ~20,000 ft ~40,000 ft Winds

METAR

KFOA 180455Z AUTO 19004KT 2SM BR OVC003 07/06 A3009 RMK AO2 T00660062

TAF

Not found

Frequencies

Recorded 120.17 MHz AWOS 3
Unicom 122.70 MHz CTAF/UNICOM
Warning: Do not use this data for real-world aviation or navigation. No guarantee of current accuracy is given.